createdAt,value
2019-01-25T00:00:39.046Z,-1.54
2019-01-25T00:03:27.173Z,-1.64
2019-01-25T00:06:08.217Z,-1.76
2019-01-25T00:08:52.877Z,-1.88
2019-01-25T00:11:32.618Z,-1.94
2019-01-25T00:14:20.532Z,-2.03
2019-01-25T00:17:00.690Z,-2.09
2019-01-25T00:19:37.813Z,-2.15
2019-01-25T00:22:23.615Z,-2.20
2019-01-25T00:25:07.529Z,-2.19
2019-01-25T00:27:37.474Z,-2.27
2019-01-25T00:30:17.258Z,-2.32
2019-01-25T00:32:55.731Z,-2.39
2019-01-25T00:35:27.795Z,-2.46
2019-01-25T00:40:58.511Z,-2.56
2019-01-25T00:43:36.937Z,-2.62
2019-01-25T00:46:24.562Z,-2.64
2019-01-25T00:48:56.633Z,-2.77
2019-01-25T00:54:46.837Z,-2.81
2019-01-25T00:57:27.336Z,-2.77
2019-01-25T01:00:09.022Z,-2.82
2019-01-25T01:02:48.475Z,-2.89
2019-01-25T01:05:26.654Z,-2.97
2019-01-25T01:08:05.758Z,-3.00
2019-01-25T01:13:33.936Z,-3.15
2019-01-25T01:16:05.317Z,-3.22
2019-01-25T01:21:55.337Z,-3.20
2019-01-25T01:24:35.036Z,-3.13
2019-01-25T01:27:24.851Z,-3.11
2019-01-25T01:30:09.797Z,-3.09
2019-01-25T01:33:04.619Z,-3.16
2019-01-25T01:38:45.668Z,-3.37
2019-01-25T01:41:30.577Z,-3.51
2019-01-25T01:44:10.856Z,-3.50
2019-01-25T01:46:48.375Z,-3.68
2019-01-25T01:52:22.841Z,-3.94
2019-01-25T01:55:02.725Z,-3.87
2019-01-25T02:00:39.012Z,-3.88
2019-01-25T02:03:28.998Z,-3.90
2019-01-25T02:08:59.337Z,-4.05
2019-01-25T02:11:31.613Z,-4.05
2019-01-25T02:14:02.865Z,-4.08
2019-01-25T02:16:49.679Z,-4.07
2019-01-25T02:22:33.677Z,-4.14
2019-01-25T02:25:04.688Z,-4.16
2019-01-25T02:27:40.635Z,-4.20
2019-01-25T02:30:25.628Z,-4.23
2019-01-25T02:33:04.565Z,-4.20
2019-01-25T02:35:36.398Z,-4.21
2019-01-25T02:38:17.069Z,-4.25
2019-01-25T02:44:05.834Z,-4.22
2019-01-25T02:46:48.048Z,-4.30
2019-01-25T02:49:34.330Z,-4.29
2019-01-25T02:52:06.974Z,-4.46
2019-01-25T02:54:47.889Z,-4.52
2019-01-25T02:57:27.627Z,-4.56
2019-01-25T03:03:12.094Z,-4.62
2019-01-25T03:05:55.590Z,-4.68
2019-01-25T03:08:25.758Z,-4.71
2019-01-25T03:11:10.974Z,-4.81
2019-01-25T03:16:48.786Z,-5.21
2019-01-25T03:19:45.818Z,-5.14
2019-01-25T03:22:35.952Z,-5.11
2019-01-25T03:25:11.107Z,-5.10
2019-01-25T03:27:44.422Z,-5.09
2019-01-25T03:30:30.407Z,-5.06
2019-01-25T03:36:27.112Z,-5.03
2019-01-25T03:39:08.075Z,-5.02
2019-01-25T03:41:43.329Z,-4.97
2019-01-25T03:44:41.076Z,-4.96
2019-01-25T03:50:36.818Z,-5.28
2019-01-25T03:53:31.295Z,-5.13
2019-01-25T03:56:10.733Z,-5.17
2019-01-25T03:59:02.752Z,-5.19
2019-01-25T04:04:43.712Z,-5.21
2019-01-25T04:07:40.073Z,-5.21
2019-01-25T04:13:45.276Z,-5.25
2019-01-25T04:22:50.167Z,-5.14
2019-01-25T04:25:23.871Z,-5.12
2019-01-25T04:31:23.213Z,-5.14
2019-01-25T04:34:02.122Z,-5.08
2019-01-25T04:36:54.243Z,-5.01
2019-01-25T04:39:37.969Z,-4.92
2019-01-25T04:42:43.254Z,-4.91
2019-01-25T04:48:32.212Z,-4.86
2019-01-25T04:57:53.711Z,-4.68
2019-01-25T05:00:48.643Z,-4.60
2019-01-25T05:03:33.551Z,-4.52
2019-01-25T05:06:19.948Z,-4.44
2019-01-25T05:12:34.840Z,-4.24
2019-01-25T05:18:31.063Z,-4.18
2019-01-25T05:21:22.177Z,-4.10
2019-01-25T05:24:50.440Z,-4.08
2019-01-25T05:30:53.121Z,-4.04
2019-01-25T05:33:38.922Z,-4.04
2019-01-25T05:48:54.657Z,-3.91
2019-01-25T05:54:38.772Z,-3.92
2019-01-25T06:06:39.384Z,-3.88
2019-01-25T06:09:51.592Z,-3.85
2019-01-25T06:12:35.059Z,-3.87
2019-01-25T06:15:18.392Z,-3.93
2019-01-25T06:18:12.506Z,-4.57
2019-01-25T06:21:05.583Z,-3.83
2019-01-25T06:24:01.018Z,-4.50
2019-01-25T06:26:50.199Z,-3.85
2019-01-25T06:29:22.275Z,-3.82
2019-01-25T06:31:54.628Z,-3.87
2019-01-25T06:34:24.832Z,-3.85
2019-01-25T06:36:56.204Z,-3.81
2019-01-25T06:39:30.631Z,-3.83
2019-01-25T06:42:06.294Z,-3.78
2019-01-25T06:44:36.044Z,-3.77
2019-01-25T06:47:08.518Z,-3.83
2019-01-25T06:49:38.397Z,-3.64
2019-01-25T06:52:08.376Z,-3.48
2019-01-25T06:54:38.109Z,-3.40
2019-01-25T06:57:09.529Z,-3.29
2019-01-25T06:59:39.436Z,-2.39
2019-01-25T07:02:09.255Z,-2.43
2019-01-25T07:04:39.094Z,-2.64
2019-01-25T07:07:10.624Z,-2.90
2019-01-25T07:09:41.061Z,-3.01
2019-01-25T07:12:11.050Z,-3.10
2019-01-25T07:14:40.879Z,-3.32
2019-01-25T07:17:10.732Z,-3.39
2019-01-25T07:19:40.558Z,-3.43
2019-01-25T07:22:10.375Z,-3.34
2019-01-25T07:24:40.265Z,-3.31
2019-01-25T07:27:10.027Z,-3.26
2019-01-25T07:29:39.835Z,-3.31
2019-01-25T07:32:09.707Z,-3.27
2019-01-25T07:34:39.465Z,-3.27
2019-01-25T07:37:09.357Z,-3.17
2019-01-25T07:39:39.213Z,-3.13
2019-01-25T07:42:09.071Z,-2.98
2019-01-25T07:44:38.921Z,-3.02
2019-01-25T07:47:08.739Z,-3.17
2019-01-25T07:49:38.573Z,-2.89
2019-01-25T07:52:08.510Z,-3.12
2019-01-25T07:54:38.314Z,-3.09
2019-01-25T07:57:09.778Z,-3.31
2019-01-25T07:59:39.590Z,-3.23
2019-01-25T08:02:09.423Z,-2.50
2019-01-25T08:04:40.433Z,-2.25
2019-01-25T08:07:10.341Z,-2.27
2019-01-25T08:09:40.356Z,-2.38
2019-01-25T08:12:10.265Z,-2.39
2019-01-25T08:14:40.099Z,-2.40
2019-01-25T08:17:09.843Z,-2.30
2019-01-25T08:19:39.685Z,-2.19
2019-01-25T08:22:09.540Z,-2.10
2019-01-25T08:24:39.347Z,-2.10
2019-01-25T08:27:09.183Z,-1.94
2019-01-25T08:29:39.031Z,-1.85
2019-01-25T08:32:08.869Z,-1.69
2019-01-25T08:34:38.611Z,-1.62
2019-01-25T08:37:08.287Z,-1.37
2019-01-25T08:39:38.151Z,-1.27
2019-01-25T08:42:15.258Z,-1.08
2019-01-25T08:44:39.850Z,-0.94
2019-01-25T08:47:09.752Z,-0.91
2019-01-25T08:49:39.388Z,-0.92
2019-01-25T08:52:10.761Z,-0.89
2019-01-25T08:54:40.776Z,-0.82
2019-01-25T08:57:10.648Z,-0.65
2019-01-25T08:59:40.478Z,-0.45
2019-01-25T09:02:10.329Z,-0.27
2019-01-25T09:04:40.129Z,-0.01
2019-01-25T09:07:10.003Z,0.18
2019-01-25T09:09:39.832Z,0.35
2019-01-25T09:12:09.648Z,0.46
2019-01-25T09:14:39.507Z,0.32
2019-01-25T09:17:09.309Z,0.26
2019-01-25T09:19:39.114Z,0.05
2019-01-25T09:22:08.959Z,0.05
2019-01-25T09:24:38.666Z,0.06
2019-01-25T09:27:08.582Z,-0.11
2019-01-25T09:29:38.432Z,-0.23
2019-01-25T09:32:08.323Z,-0.23
2019-01-25T09:34:38.212Z,-0.13
2019-01-25T09:37:08.050Z,-0.06
2019-01-25T09:39:37.845Z,-0.06
2019-01-25T09:42:07.786Z,-0.40
2019-01-25T09:44:37.597Z,-0.34
2019-01-25T09:47:07.421Z,-0.31
2019-01-25T09:49:37.239Z,-0.16
2019-01-25T09:52:07.031Z,-0.16
2019-01-25T09:54:36.780Z,-0.43
2019-01-25T09:57:06.611Z,-0.74
2019-01-25T09:59:36.442Z,-0.71
2019-01-25T10:02:06.301Z,-0.70
2019-01-25T10:04:36.167Z,-0.74
2019-01-25T10:07:05.934Z,-0.77
2019-01-25T10:09:35.612Z,-0.71
2019-01-25T10:12:05.460Z,-0.50
2019-01-25T10:14:35.166Z,-0.40
2019-01-25T10:17:04.944Z,-0.25
2019-01-25T10:19:34.745Z,-0.14
2019-01-25T10:22:04.486Z,-0.15
2019-01-25T10:24:34.339Z,-0.05
2019-01-25T10:27:04.158Z,-0.04
2019-01-25T10:29:34.021Z,-0.09
2019-01-25T10:32:04.019Z,0.19
2019-01-25T10:34:33.665Z,0.10
2019-01-25T10:37:03.630Z,0.10
2019-01-25T10:39:33.464Z,0.32
2019-01-25T10:42:03.305Z,0.46
2019-01-25T10:44:33.148Z,0.46
2019-01-25T10:47:03.107Z,0.61
2019-01-25T10:49:32.924Z,0.70
2019-01-25T10:52:02.787Z,0.64
2019-01-25T10:54:32.561Z,0.64
2019-01-25T10:57:02.352Z,0.53
2019-01-25T10:59:32.128Z,0.43
2019-01-25T11:02:01.947Z,0.43
2019-01-25T11:04:31.790Z,0.47
2019-01-25T11:07:03.345Z,0.40
2019-01-25T11:09:37.866Z,0.40
2019-01-25T11:12:04.876Z,0.51
2019-01-25T11:14:34.646Z,0.45
2019-01-25T11:17:04.551Z,0.45
2019-01-25T11:19:34.292Z,0.57
2019-01-25T11:22:04.029Z,0.29
2019-01-25T11:24:33.809Z,0.29
2019-01-25T11:27:03.651Z,0.23
2019-01-25T11:29:33.504Z,0.34
2019-01-25T11:32:03.311Z,0.27
2019-01-25T11:34:33.227Z,0.23
2019-01-25T11:37:02.932Z,0.30
2019-01-25T11:39:32.686Z,0.26
2019-01-25T11:42:02.501Z,0.34
2019-01-25T11:44:32.305Z,0.29
2019-01-25T11:47:02.008Z,0.20
2019-01-25T11:49:31.816Z,0.32
2019-01-25T11:52:01.615Z,0.32
2019-01-25T11:54:31.529Z,0.26
2019-01-25T11:57:01.745Z,0.14
2019-01-25T11:59:31.503Z,0.10
2019-01-25T12:02:01.321Z,0.09
2019-01-25T12:04:31.105Z,0.01
2019-01-25T12:07:00.906Z,0.06
2019-01-25T12:09:30.728Z,-0.17
2019-01-25T12:12:00.451Z,-0.21
2019-01-25T12:14:30.242Z,-0.22
2019-01-25T12:17:00.167Z,-0.22
2019-01-25T12:19:29.960Z,-0.23
2019-01-25T12:21:59.630Z,-0.23
2019-01-25T12:24:29.464Z,-0.25
2019-01-25T12:26:59.153Z,-0.23
2019-01-25T12:29:29.081Z,-0.24
2019-01-25T12:31:58.952Z,-0.13
2019-01-25T12:34:28.732Z,-0.12
2019-01-25T12:36:58.508Z,-0.09
2019-01-25T12:39:28.246Z,-0.10
2019-01-25T12:41:58.151Z,-0.14
2019-01-25T12:44:27.969Z,-0.14
2019-01-25T12:46:57.735Z,-0.16
2019-01-25T12:49:27.509Z,-0.12
2019-01-25T12:51:58.609Z,-0.12
2019-01-25T12:54:28.395Z,-0.04
2019-01-25T12:56:58.166Z,-0.04
2019-01-25T12:59:27.964Z,0.03
2019-01-25T13:01:59.467Z,0.03
2019-01-25T13:04:29.249Z,0.11
2019-01-25T13:06:58.975Z,0.07
2019-01-25T13:09:28.732Z,0.01
2019-01-25T13:11:58.557Z,0.01
2019-01-25T13:14:28.527Z,0.03
2019-01-25T13:16:58.357Z,0.06
2019-01-25T13:19:28.126Z,0.06
2019-01-25T13:21:57.906Z,0.02
2019-01-25T13:24:27.609Z,0.02
2019-01-25T13:26:57.522Z,-0.01
2019-01-25T13:29:27.163Z,0.00
2019-01-25T13:31:57.157Z,0.00
2019-01-25T13:34:27.077Z,0.00
2019-01-25T13:36:57.379Z,-0.03
2019-01-25T13:39:27.352Z,-0.04
2019-01-25T13:41:58.540Z,-0.05
2019-01-25T13:44:30.244Z,-0.06
2019-01-25T13:47:00.296Z,-0.06
2019-01-25T13:49:31.630Z,-0.02
2019-01-25T13:52:01.537Z,-0.02
2019-01-25T13:54:31.368Z,0.03
2019-01-25T13:57:02.662Z,-0.01
2019-01-25T13:59:33.650Z,-0.01
2019-01-25T14:02:03.949Z,0.01
2019-01-25T14:04:33.727Z,0.01
2019-01-25T14:07:05.034Z,0.20
2019-01-25T14:09:35.319Z,0.10
2019-01-25T14:12:05.232Z,0.09
2019-01-25T14:14:37.947Z,0.16
2019-01-25T14:17:07.711Z,0.57
2019-01-25T14:19:37.501Z,0.87
2019-01-25T14:22:07.325Z,1.33
2019-01-25T14:24:37.228Z,1.47
2019-01-25T14:27:07.169Z,1.47
2019-01-25T14:29:36.956Z,1.45
2019-01-25T14:32:08.110Z,1.41
2019-01-25T14:34:38.109Z,1.35
2019-01-25T14:37:07.939Z,1.41
2019-01-25T14:39:37.768Z,1.17
2019-01-25T14:42:07.597Z,1.73
2019-01-25T14:44:37.411Z,1.73
2019-01-25T14:47:07.271Z,1.61
2019-01-25T14:49:37.078Z,1.47
2019-01-25T14:52:07.006Z,1.38
2019-01-25T14:54:36.692Z,1.41
2019-01-25T14:57:06.503Z,1.31
2019-01-25T14:59:36.373Z,1.43
2019-01-25T15:02:06.225Z,1.31
2019-01-25T15:04:35.985Z,1.31
2019-01-25T15:07:05.838Z,1.26
2019-01-25T15:09:35.552Z,1.26
2019-01-25T15:12:06.239Z,1.16
2019-01-25T15:14:35.995Z,1.10
2019-01-25T15:17:05.723Z,1.17
2019-01-25T15:19:35.612Z,0.91
2019-01-25T15:22:05.440Z,0.91
2019-01-25T15:24:35.227Z,0.86
2019-01-25T15:27:05.186Z,0.91
2019-01-25T15:29:34.907Z,0.80
2019-01-25T15:32:04.868Z,0.73
2019-01-25T15:34:34.887Z,0.74
2019-01-25T15:37:04.631Z,0.65
2019-01-25T15:39:34.373Z,0.65
2019-01-25T15:42:04.180Z,0.59
2019-01-25T15:44:33.887Z,0.57
2019-01-25T15:47:03.695Z,0.48
2019-01-25T15:49:33.589Z,0.42
2019-01-25T15:52:03.374Z,0.42
2019-01-25T15:54:33.121Z,0.30
2019-01-25T15:57:02.958Z,0.26
2019-01-25T15:59:32.687Z,0.30
2019-01-25T16:02:02.466Z,0.24
2019-01-25T16:04:35.066Z,0.25
2019-01-25T16:07:03.807Z,0.28
2019-01-25T16:09:33.720Z,0.16
2019-01-25T16:12:03.640Z,0.03
2019-01-25T16:14:33.451Z,0.05
2019-01-25T16:17:03.321Z,0.10
2019-01-25T16:19:33.129Z,0.06
2019-01-25T16:22:02.933Z,0.02
2019-01-25T16:24:32.738Z,-0.22
2019-01-25T16:27:02.676Z,-0.29
2019-01-25T16:29:32.585Z,-0.42
2019-01-25T16:32:02.394Z,-0.27
2019-01-25T16:34:32.216Z,-0.15
2019-01-25T16:37:02.103Z,0.05
2019-01-25T16:39:31.935Z,-0.08
2019-01-25T16:42:01.747Z,-0.16
2019-01-25T16:44:31.553Z,-0.33
2019-01-25T16:47:01.366Z,-0.30
2019-01-25T16:49:31.246Z,-0.26
2019-01-25T16:52:01.364Z,-0.34
2019-01-25T16:54:31.163Z,-0.67
2019-01-25T16:57:01.026Z,-0.71
2019-01-25T16:59:30.898Z,-0.51
2019-01-25T17:02:00.847Z,-0.36
2019-01-25T17:04:33.048Z,-0.33
2019-01-25T17:07:02.886Z,-0.41
2019-01-25T17:09:32.731Z,-0.68
2019-01-25T17:12:02.622Z,-0.60
2019-01-25T17:14:33.585Z,-0.61
2019-01-25T17:17:03.677Z,-0.47
2019-01-25T17:19:33.504Z,-0.71
2019-01-25T17:22:03.278Z,-0.94
2019-01-25T17:24:33.208Z,-1.07
2019-01-25T17:27:03.058Z,-1.28
2019-01-25T17:29:32.946Z,-1.45
2019-01-25T17:32:02.784Z,-1.59
2019-01-25T17:34:32.603Z,-1.70
2019-01-25T17:37:02.449Z,-1.81
2019-01-25T17:39:32.312Z,-1.93
2019-01-25T17:42:02.113Z,-1.99
2019-01-25T17:44:31.913Z,-2.09
2019-01-25T17:47:01.779Z,-2.13
2019-01-25T17:49:31.591Z,-2.02
2019-01-25T17:52:01.446Z,-2.17
2019-01-25T17:54:31.247Z,-1.96
2019-01-25T17:57:01.049Z,-2.01
2019-01-25T17:59:30.965Z,-2.10
2019-01-25T18:02:00.776Z,-1.96
2019-01-25T18:04:30.591Z,-1.65
2019-01-25T18:07:00.749Z,-1.57
2019-01-25T18:09:30.565Z,-1.13
2019-01-25T18:12:00.401Z,-1.26
2019-01-25T18:14:30.254Z,-1.17
2019-01-25T18:17:02.326Z,-1.11
2019-01-25T18:19:32.167Z,-1.23
2019-01-25T18:22:02.129Z,-1.48
2019-01-25T18:24:31.966Z,-1.45
2019-01-25T18:27:01.744Z,-1.57
2019-01-25T18:29:31.609Z,-1.26
2019-01-25T18:32:01.578Z,-1.15
2019-01-25T18:34:31.870Z,-1.19
2019-01-25T18:37:02.122Z,-1.28
2019-01-25T18:39:31.969Z,-1.44
2019-01-25T18:42:01.768Z,-1.29
2019-01-25T18:44:31.587Z,-1.22
2019-01-25T18:47:01.390Z,-1.07
2019-01-25T18:49:31.289Z,-1.03
2019-01-25T18:52:01.087Z,-0.96
2019-01-25T18:54:30.976Z,-0.88
2019-01-25T18:57:00.795Z,-0.68
2019-01-25T18:59:30.611Z,-0.22
2019-01-25T19:02:00.910Z,-0.29
2019-01-25T19:04:30.743Z,-0.52
2019-01-25T19:07:00.507Z,-0.63
2019-01-25T19:09:32.747Z,-0.75
2019-01-25T19:12:02.527Z,-0.84
2019-01-25T19:14:32.345Z,-0.77
2019-01-25T19:17:02.211Z,-0.81
2019-01-25T19:19:32.195Z,-0.84
2019-01-25T19:22:02.008Z,-0.85
2019-01-25T19:24:31.847Z,-0.93
2019-01-25T19:27:01.661Z,-0.83
2019-01-25T19:29:31.549Z,-0.85
2019-01-25T19:32:01.482Z,-0.86
2019-01-25T19:34:31.293Z,-0.85
2019-01-25T19:37:02.814Z,-0.85
2019-01-25T19:39:32.794Z,-0.80
2019-01-25T19:42:03.990Z,-0.86
2019-01-25T19:44:33.827Z,-1.18
2019-01-25T19:47:04.110Z,-1.03
2019-01-25T19:49:34.340Z,-0.92
2019-01-25T19:52:04.290Z,-0.98
2019-01-25T19:54:34.148Z,-0.89
2019-01-25T19:57:04.106Z,-0.99
2019-01-25T19:59:33.969Z,-0.89
2019-01-25T20:02:05.695Z,-0.98
2019-01-25T20:04:35.504Z,-0.99
2019-01-25T20:07:05.316Z,-1.02
2019-01-25T20:09:45.729Z,-0.83
2019-01-25T20:12:15.683Z,-0.97
2019-01-25T20:14:45.585Z,-1.06
2019-01-25T20:17:15.566Z,-0.99
2019-01-25T20:19:45.638Z,-0.76
2019-01-25T20:22:15.489Z,-0.91
2019-01-25T20:24:45.792Z,-0.78
2019-01-25T20:27:15.599Z,-0.89
2019-01-25T20:29:45.499Z,-0.94
2019-01-25T20:32:15.317Z,-1.03
2019-01-25T20:34:45.212Z,-0.96
2019-01-25T20:37:15.011Z,-1.04
2019-01-25T20:39:46.778Z,-1.15
2019-01-25T20:42:17.112Z,-0.95
2019-01-25T20:44:49.530Z,-0.90
2019-01-25T20:47:19.390Z,-0.94
2019-01-25T20:49:51.272Z,-0.93
2019-01-25T20:52:21.113Z,-1.12
2019-01-25T20:54:52.853Z,-0.93
2019-01-25T20:57:22.738Z,-0.97
2019-01-25T20:59:52.550Z,-1.14
2019-01-25T21:02:22.450Z,-1.21
2019-01-25T21:04:52.252Z,-1.06
2019-01-25T21:07:22.079Z,-1.07
2019-01-25T21:09:54.162Z,-1.15
2019-01-25T21:12:24.502Z,-0.98
2019-01-25T21:14:54.393Z,-0.93
2019-01-25T21:17:24.335Z,-1.00
2019-01-25T21:19:54.128Z,-1.01
2019-01-25T21:22:24.017Z,-1.05
2019-01-25T21:24:53.835Z,-1.00
2019-01-25T21:27:25.348Z,-0.98
2019-01-25T21:29:55.182Z,-0.95
2019-01-25T21:32:34.388Z,-0.95
2019-01-25T21:35:09.529Z,-0.90
2019-01-25T21:37:45.488Z,-0.95
2019-01-25T21:40:19.677Z,-0.93
2019-01-25T21:42:49.506Z,-0.92
2019-01-25T21:45:24.243Z,-0.96
2019-01-25T21:47:56.844Z,-0.92
2019-01-25T21:50:30.377Z,-0.94
2019-01-25T21:53:03.340Z,-0.96
2019-01-25T21:55:34.670Z,-1.00
2019-01-25T21:58:05.808Z,-0.98
2019-01-25T22:00:36.621Z,-0.97
2019-01-25T22:03:06.877Z,-0.91
2019-01-25T22:05:54.770Z,-0.96
2019-01-25T22:08:27.478Z,-0.91
2019-01-25T22:10:58.153Z,-0.94
2019-01-25T22:13:27.970Z,-0.93
2019-01-25T22:15:57.697Z,-1.07
2019-01-25T22:18:27.457Z,-0.98
2019-01-25T22:20:58.870Z,-1.03
2019-01-25T22:23:28.617Z,-1.18
2019-01-25T22:25:59.710Z,-1.07
2019-01-25T22:28:29.756Z,-1.06
2019-01-25T22:30:59.382Z,-0.98
2019-01-25T22:33:29.223Z,-0.98
2019-01-25T22:35:58.984Z,-0.97
2019-01-25T22:38:28.802Z,-0.97
2019-01-25T22:41:02.462Z,-1.07
2019-01-25T22:43:33.191Z,-1.06
2019-01-25T22:46:03.007Z,-1.12
2019-01-25T22:48:34.129Z,-1.04
2019-01-25T22:51:03.896Z,-1.09
2019-01-25T22:53:33.765Z,-0.99
2019-01-25T22:56:03.589Z,-1.01
2019-01-25T22:58:35.618Z,-1.05
2019-01-25T23:01:11.466Z,-1.02
2019-01-25T23:04:03.909Z,-0.96
2019-01-25T23:06:36.752Z,-1.02
2019-01-25T23:09:12.509Z,-1.09
2019-01-25T23:11:42.273Z,-1.07
2019-01-25T23:14:12.057Z,-1.06
2019-01-25T23:16:41.838Z,-0.99
2019-01-25T23:19:11.503Z,-1.06
2019-01-25T23:21:41.207Z,-1.07
2019-01-25T23:24:12.542Z,-0.99
2019-01-25T23:26:42.327Z,-0.95
2019-01-25T23:29:12.933Z,-1.05
2019-01-25T23:31:42.651Z,-1.13
2019-01-25T23:34:12.467Z,-1.19
2019-01-25T23:36:42.186Z,-1.14
2019-01-25T23:39:12.435Z,-1.01
2019-01-25T23:41:42.147Z,-1.01
2019-01-25T23:44:11.899Z,-1.04
2019-01-25T23:46:41.787Z,-1.20
2019-01-25T23:49:11.613Z,-1.39
2019-01-25T23:51:41.397Z,-1.47
2019-01-25T23:54:11.161Z,-1.37
2019-01-25T23:56:40.824Z,-1.62
2019-01-25T23:59:11.486Z,-1.35
